sensor_id;sensor_type;location;lat;lon;timestamp;P1;durP1;ratioP1;P2;durP2;ratioP2
14704;SDS011;7442;50.840;3.396;2024-01-15T00:05:28;3.15;;;2.85;;
14704;SDS011;7442;50.840;3.396;2024-01-15T00:08:13;3.10;;;2.80;;
14704;SDS011;7442;50.840;3.396;2024-01-15T00:11:00;3.08;;;2.77;;
14704;SDS011;7442;50.840;3.396;2024-01-15T00:13:45;2.75;;;2.37;;
14704;SDS011;7442;50.840;3.396;2024-01-15T00:16:32;3.17;;;2.50;;
14704;SDS011;7442;50.840;3.396;2024-01-15T00:22:03;2.60;;;2.40;;
14704;SDS011;7442;50.840;3.396;2024-01-15T00:24:49;2.75;;;2.50;;
14704;SDS011;7442;50.840;3.396;2024-01-15T00:27:35;2.55;;;2.35;;
14704;SDS011;7442;50.840;3.396;2024-01-15T00:33:07;3.05;;;2.55;;
14704;SDS011;7442;50.840;3.396;2024-01-15T00:38:38;2.33;;;2.12;;
14704;SDS011;7442;50.840;3.396;2024-01-15T00:41:27;2.65;;;2.45;;
14704;SDS011;7442;50.840;3.396;2024-01-15T00:44:13;2.77;;;2.47;;
14704;SDS011;7442;50.840;3.396;2024-01-15T00:46:59;2.98;;;2.33;;
14704;SDS011;7442;50.840;3.396;2024-01-15T00:49:47;2.50;;;2.30;;
14704;SDS011;7442;50.840;3.396;2024-01-15T00:52:33;2.77;;;2.50;;
14704;SDS011;7442;50.840;3.396;2024-01-15T00:58:04;2.55;;;2.35;;
14704;SDS011;7442;50.840;3.396;2024-01-15T01:03:35;2.42;;;2.15;;
14704;SDS011;7442;50.840;3.396;2024-01-15T01:06:21;2.40;;;2.20;;
14704;SDS011;7442;50.840;3.396;2024-01-15T01:09:07;2.90;;;2.50;;
14704;SDS011;7442;50.840;3.396;2024-01-15T01:11:54;2.75;;;2.40;;
14704;SDS011;7442;50.840;3.396;2024-01-15T01:14:40;2.52;;;2.22;;
14704;SDS011;7442;50.840;3.396;2024-01-15T01:17:26;2.60;;;2.40;;
14704;SDS011;7442;50.840;3.396;2024-01-15T01:22:57;2.67;;;2.27;;
14704;SDS011;7442;50.840;3.396;2024-01-15T01:25:43;2.58;;;2.30;;
14704;SDS011;7442;50.840;3.396;2024-01-15T01:28:32;2.60;;;2.15;;
14704;SDS011;7442;50.840;3.396;2024-01-15T01:34:03;2.20;;;2.00;;
14704;SDS011;7442;50.840;3.396;2024-01-15T01:36:49;2.50;;;2.30;;
14704;SDS011;7442;50.840;3.396;2024-01-15T01:39:35;2.17;;;1.98;;
14704;SDS011;7442;50.840;3.396;2024-01-15T01:42:21;2.15;;;1.95;;
14704;SDS011;7442;50.840;3.396;2024-01-15T01:45:07;2.17;;;1.98;;
14704;SDS011;7442;50.840;3.396;2024-01-15T01:47:53;2.15;;;1.95;;
14704;SDS011;7442;50.840;3.396;2024-01-15T01:50:41;1.85;;;1.70;;
14704;SDS011;7442;50.840;3.396;2024-01-15T01:53:27;3.02;;;2.05;;
14704;SDS011;7442;50.840;3.396;2024-01-15T01:56:13;2.20;;;1.90;;
14704;SDS011;7442;50.840;3.396;2024-01-15T01:59:01;2.37;;;2.10;;
14704;SDS011;7442;50.840;3.396;2024-01-15T02:01:47;1.92;;;1.80;;
14704;SDS011;7442;50.840;3.396;2024-01-15T02:04:34;2.00;;;1.80;;
14704;SDS011;7442;50.840;3.396;2024-01-15T02:07:23;2.17;;;1.90;;
14704;SDS011;7442;50.840;3.396;2024-01-15T02:10:09;2.17;;;1.98;;
14704;SDS011;7442;50.840;3.396;2024-01-15T02:12:56;2.37;;;1.92;;
14704;SDS011;7442;50.840;3.396;2024-01-15T02:15:42;2.02;;;1.82;;
14704;SDS011;7442;50.840;3.396;2024-01-15T02:18:27;2.20;;;1.65;;
14704;SDS011;7442;50.840;3.396;2024-01-15T02:21:13;1.67;;;1.57;;
14704;SDS011;7442;50.840;3.396;2024-01-15T02:24:00;2.00;;;1.67;;
14704;SDS011;7442;50.840;3.396;2024-01-15T02:29:31;2.20;;;1.90;;
14704;SDS011;7442;50.840;3.396;2024-01-15T02:32:16;1.80;;;1.67;;
14704;SDS011;7442;50.840;3.396;2024-01-15T02:35:02;1.90;;;1.80;;
14704;SDS011;7442;50.840;3.396;2024-01-15T02:37:48;1.85;;;1.75;;
14704;SDS011;7442;50.840;3.396;2024-01-15T02:40:34;1.85;;;1.75;;
14704;SDS011;7442;50.840;3.396;2024-01-15T02:43:20;1.80;;;1.50;;
14704;SDS011;7442;50.840;3.396;2024-01-15T02:48:52;1.70;;;1.60;;
14704;SDS011;7442;50.840;3.396;2024-01-15T02:54:23;1.50;;;1.40;;
14704;SDS011;7442;50.840;3.396;2024-01-15T02:57:09;2.37;;;1.87;;
14704;SDS011;7442;50.840;3.396;2024-01-15T02:59:54;1.75;;;1.57;;
14704;SDS011;7442;50.840;3.396;2024-01-15T03:02:44;1.77;;;1.65;;
14704;SDS011;7442;50.840;3.396;2024-01-15T03:05:30;1.62;;;1.52;;
14704;SDS011;7442;50.840;3.396;2024-01-15T03:08:16;1.55;;;1.42;;
14704;SDS011;7442;50.840;3.396;2024-01-15T03:11:02;1.62;;;1.52;;
14704;SDS011;7442;50.840;3.396;2024-01-15T03:13:48;1.95;;;1.50;;
14704;SDS011;7442;50.840;3.396;2024-01-15T03:19:19;2.10;;;1.70;;
14704;SDS011;7442;50.840;3.396;2024-01-15T03:22:05;1.40;;;1.30;;
14704;SDS011;7442;50.840;3.396;2024-01-15T03:24:53;1.35;;;1.25;;
14704;SDS011;7442;50.840;3.396;2024-01-15T03:27:38;2.87;;;1.60;;
14704;SDS011;7442;50.840;3.396;2024-01-15T03:30:25;1.57;;;1.42;;
14704;SDS011;7442;50.840;3.396;2024-01-15T03:33:11;1.60;;;1.50;;
14704;SDS011;7442;50.840;3.396;2024-01-15T03:35:57;1.50;;;1.40;;
14704;SDS011;7442;50.840;3.396;2024-01-15T03:38:43;1.50;;;1.32;;
14704;SDS011;7442;50.840;3.396;2024-01-15T03:41:30;1.52;;;1.42;;
14704;SDS011;7442;50.840;3.396;2024-01-15T03:44:17;2.10;;;1.50;;
14704;SDS011;7442;50.840;3.396;2024-01-15T03:47:03;1.35;;;1.20;;
14704;SDS011;7442;50.840;3.396;2024-01-15T03:49:49;1.45;;;1.32;;
14704;SDS011;7442;50.840;3.396;2024-01-15T03:55:20;1.82;;;1.52;;
14704;SDS011;7442;50.840;3.396;2024-01-15T03:58:06;1.85;;;1.50;;
14704;SDS011;7442;50.840;3.396;2024-01-15T04:00:52;1.92;;;1.50;;
14704;SDS011;7442;50.840;3.396;2024-01-15T04:06:23;1.22;;;1.12;;
14704;SDS011;7442;50.840;3.396;2024-01-15T04:11:55;1.52;;;1.42;;
14704;SDS011;7442;50.840;3.396;2024-01-15T04:14:41;1.42;;;1.32;;
14704;SDS011;7442;50.840;3.396;2024-01-15T04:17:26;2.67;;;1.62;;
14704;SDS011;7442;50.840;3.396;2024-01-15T04:20:13;1.52;;;1.30;;
14704;SDS011;7442;50.840;3.396;2024-01-15T04:25:44;2.10;;;1.60;;
14704;SDS011;7442;50.840;3.396;2024-01-15T04:28:31;1.92;;;1.25;;
14704;SDS011;7442;50.840;3.396;2024-01-15T04:31:23;1.87;;;1.37;;
14704;SDS011;7442;50.840;3.396;2024-01-15T04:34:09;1.82;;;1.20;;
14704;SDS011;7442;50.840;3.396;2024-01-15T04:39:40;1.40;;;1.17;;
14704;SDS011;7442;50.840;3.396;2024-01-15T04:42:26;1.35;;;1.10;;
14704;SDS011;7442;50.840;3.396;2024-01-15T04:47:58;1.27;;;1.17;;
14704;SDS011;7442;50.840;3.396;2024-01-15T04:53:29;2.10;;;0.95;;
14704;SDS011;7442;50.840;3.396;2024-01-15T04:56:15;1.37;;;1.27;;
14704;SDS011;7442;50.840;3.396;2024-01-15T04:59:01;1.27;;;1.00;;
14704;SDS011;7442;50.840;3.396;2024-01-15T05:04:34;1.37;;;1.27;;
14704;SDS011;7442;50.840;3.396;2024-01-15T05:07:20;1.25;;;1.15;;
14704;SDS011;7442;50.840;3.396;2024-01-15T05:12:52;1.62;;;1.40;;
14704;SDS011;7442;50.840;3.396;2024-01-15T05:15:38;1.67;;;1.22;;
14704;SDS011;7442;50.840;3.396;2024-01-15T05:18:24;1.52;;;1.10;;
14704;SDS011;7442;50.840;3.396;2024-01-15T05:23:55;1.15;;;1.05;;
14704;SDS011;7442;50.840;3.396;2024-01-15T05:26:42;1.25;;;1.10;;
14704;SDS011;7442;50.840;3.396;2024-01-15T05:29:28;1.20;;;1.10;;
14704;SDS011;7442;50.840;3.396;2024-01-15T05:32:14;1.40;;;1.17;;
14704;SDS011;7442;50.840;3.396;2024-01-15T05:37:46;1.62;;;1.02;;
14704;SDS011;7442;50.840;3.396;2024-01-15T05:40:32;0.90;;;0.90;;
14704;SDS011;7442;50.840;3.396;2024-01-15T05:46:03;2.12;;;1.10;;
14704;SDS011;7442;50.840;3.396;2024-01-15T05:48:49;0.85;;;0.85;;
14704;SDS011;7442;50.840;3.396;2024-01-15T05:54:20;1.15;;;0.93;;
14704;SDS011;7442;50.840;3.396;2024-01-15T05:57:07;1.55;;;1.15;;
14704;SDS011;7442;50.840;3.396;2024-01-15T05:59:53;1.67;;;1.30;;
14704;SDS011;7442;50.840;3.396;2024-01-15T06:02:39;1.42;;;0.95;;
14704;SDS011;7442;50.840;3.396;2024-01-15T06:05:25;1.00;;;0.90;;
14704;SDS011;7442;50.840;3.396;2024-01-15T06:10:56;1.40;;;1.05;;
14704;SDS011;7442;50.840;3.396;2024-01-15T06:13:42;1.00;;;1.00;;
14704;SDS011;7442;50.840;3.396;2024-01-15T06:19:13;1.20;;;1.00;;
14704;SDS011;7442;50.840;3.396;2024-01-15T06:21:59;1.40;;;1.17;;
14704;SDS011;7442;50.840;3.396;2024-01-15T06:24:46;1.70;;;1.07;;
14704;SDS011;7442;50.840;3.396;2024-01-15T06:27:32;1.60;;;1.20;;
14704;SDS011;7442;50.840;3.396;2024-01-15T06:33:03;2.00;;;1.00;;
14704;SDS011;7442;50.840;3.396;2024-01-15T06:35:50;1.20;;;1.10;;
14704;SDS011;7442;50.840;3.396;2024-01-15T06:38:36;1.80;;;1.00;;
14704;SDS011;7442;50.840;3.396;2024-01-15T06:44:07;1.45;;;1.17;;
14704;SDS011;7442;50.840;3.396;2024-01-15T06:52:25;0.82;;;0.80;;
14704;SDS011;7442;50.840;3.396;2024-01-15T06:57:56;1.00;;;0.90;;
14704;SDS011;7442;50.840;3.396;2024-01-15T07:03:27;0.98;;;0.88;;
14704;SDS011;7442;50.840;3.396;2024-01-15T07:06:13;0.80;;;0.80;;
14704;SDS011;7442;50.840;3.396;2024-01-15T07:09:06;0.75;;;0.75;;
14704;SDS011;7442;50.840;3.396;2024-01-15T07:11:53;0.72;;;0.72;;
14704;SDS011;7442;50.840;3.396;2024-01-15T07:14:41;1.45;;;1.07;;
14704;SDS011;7442;50.840;3.396;2024-01-15T07:17:27;0.72;;;0.72;;
14704;SDS011;7442;50.840;3.396;2024-01-15T07:20:13;0.80;;;0.80;;
14704;SDS011;7442;50.840;3.396;2024-01-15T07:22:59;1.62;;;0.90;;
14704;SDS011;7442;50.840;3.396;2024-01-15T07:25:45;0.90;;;0.80;;
14704;SDS011;7442;50.840;3.396;2024-01-15T07:28:32;1.25;;;0.88;;
14704;SDS011;7442;50.840;3.396;2024-01-15T07:31:18;1.27;;;0.90;;
14704;SDS011;7442;50.840;3.396;2024-01-15T07:34:04;0.82;;;0.82;;
14704;SDS011;7442;50.840;3.396;2024-01-15T07:39:35;1.05;;;0.90;;
14704;SDS011;7442;50.840;3.396;2024-01-15T07:42:21;1.47;;;1.07;;
14704;SDS011;7442;50.840;3.396;2024-01-15T07:47:53;1.02;;;0.80;;
14704;SDS011;7442;50.840;3.396;2024-01-15T07:53:24;1.35;;;0.95;;
14704;SDS011;7442;50.840;3.396;2024-01-15T07:56:09;1.15;;;0.93;;
14704;SDS011;7442;50.840;3.396;2024-01-15T07:58:56;0.93;;;0.90;;
14704;SDS011;7442;50.840;3.396;2024-01-15T08:01:42;1.47;;;0.72;;
14704;SDS011;7442;50.840;3.396;2024-01-15T08:04:30;1.30;;;1.00;;
14704;SDS011;7442;50.840;3.396;2024-01-15T08:07:16;1.85;;;0.82;;
14704;SDS011;7442;50.840;3.396;2024-01-15T08:10:02;1.02;;;0.90;;
14704;SDS011;7442;50.840;3.396;2024-01-15T08:12:48;1.17;;;0.93;;
14704;SDS011;7442;50.840;3.396;2024-01-15T08:15:34;1.15;;;0.78;;
14704;SDS011;7442;50.840;3.396;2024-01-15T08:18:22;0.95;;;0.80;;
14704;SDS011;7442;50.840;3.396;2024-01-15T08:21:08;1.52;;;1.17;;
14704;SDS011;7442;50.840;3.396;2024-01-15T08:23:54;1.10;;;0.90;;
14704;SDS011;7442;50.840;3.396;2024-01-15T08:26:40;1.40;;;0.90;;
14704;SDS011;7442;50.840;3.396;2024-01-15T08:29:26;2.80;;;1.20;;
14704;SDS011;7442;50.840;3.396;2024-01-15T08:32:12;2.05;;;1.10;;
14704;SDS011;7442;50.840;3.396;2024-01-15T08:35:00;0.90;;;0.75;;
14704;SDS011;7442;50.840;3.396;2024-01-15T08:37:52;1.02;;;0.80;;
14704;SDS011;7442;50.840;3.396;2024-01-15T08:40:38;0.72;;;0.55;;
14704;SDS011;7442;50.840;3.396;2024-01-15T08:43:24;1.10;;;1.00;;
14704;SDS011;7442;50.840;3.396;2024-01-15T08:46:10;1.40;;;1.02;;
14704;SDS011;7442;50.840;3.396;2024-01-15T08:48:57;0.70;;;0.70;;
14704;SDS011;7442;50.840;3.396;2024-01-15T08:51:43;0.90;;;0.65;;
14704;SDS011;7442;50.840;3.396;2024-01-15T08:54:29;1.37;;;0.90;;
14704;SDS011;7442;50.840;3.396;2024-01-15T08:57:15;1.10;;;0.80;;
14704;SDS011;7442;50.840;3.396;2024-01-15T09:00:01;0.80;;;0.80;;
14704;SDS011;7442;50.840;3.396;2024-01-15T09:02:48;3.00;;;1.00;;
14704;SDS011;7442;50.840;3.396;2024-01-15T09:08:19;1.37;;;0.72;;
14704;SDS011;7442;50.840;3.396;2024-01-15T09:13:50;1.77;;;1.10;;
14704;SDS011;7442;50.840;3.396;2024-01-15T09:16:37;1.02;;;0.60;;
14704;SDS011;7442;50.840;3.396;2024-01-15T09:19:23;1.65;;;1.05;;
14704;SDS011;7442;50.840;3.396;2024-01-15T09:22:09;1.42;;;0.80;;
14704;SDS011;7442;50.840;3.396;2024-01-15T09:24:56;1.32;;;0.90;;
14704;SDS011;7442;50.840;3.396;2024-01-15T09:27:42;0.80;;;0.80;;
14704;SDS011;7442;50.840;3.396;2024-01-15T09:30:30;1.02;;;0.88;;
14704;SDS011;7442;50.840;3.396;2024-01-15T09:33:15;1.02;;;0.90;;
14704;SDS011;7442;50.840;3.396;2024-01-15T09:36:02;1.00;;;0.70;;
14704;SDS011;7442;50.840;3.396;2024-01-15T09:38:49;0.70;;;0.60;;
14704;SDS011;7442;50.840;3.396;2024-01-15T09:41:36;1.25;;;1.00;;
14704;SDS011;7442;50.840;3.396;2024-01-15T09:44:22;1.20;;;0.80;;
14704;SDS011;7442;50.840;3.396;2024-01-15T09:47:09;1.65;;;1.00;;
14704;SDS011;7442;50.840;3.396;2024-01-15T09:49:57;0.98;;;0.65;;
14704;SDS011;7442;50.840;3.396;2024-01-15T09:52:43;0.93;;;0.80;;
14704;SDS011;7442;50.840;3.396;2024-01-15T09:55:29;2.05;;;1.12;;
14704;SDS011;7442;50.840;3.396;2024-01-15T09:58:17;1.82;;;0.90;;
14704;SDS011;7442;50.840;3.396;2024-01-15T10:01:03;0.80;;;0.60;;
14704;SDS011;7442;50.840;3.396;2024-01-15T10:03:50;1.55;;;1.00;;
14704;SDS011;7442;50.840;3.396;2024-01-15T10:06:36;1.07;;;0.80;;
14704;SDS011;7442;50.840;3.396;2024-01-15T10:09:23;1.40;;;0.82;;
14704;SDS011;7442;50.840;3.396;2024-01-15T10:14:55;0.90;;;0.70;;
14704;SDS011;7442;50.840;3.396;2024-01-15T10:17:43;2.67;;;1.02;;
14704;SDS011;7442;50.840;3.396;2024-01-15T10:20:31;1.05;;;0.70;;
14704;SDS011;7442;50.840;3.396;2024-01-15T10:23:17;0.90;;;0.80;;
14704;SDS011;7442;50.840;3.396;2024-01-15T10:26:03;1.62;;;0.98;;
14704;SDS011;7442;50.840;3.396;2024-01-15T10:28:50;2.45;;;1.00;;
14704;SDS011;7442;50.840;3.396;2024-01-15T10:31:37;0.93;;;0.78;;
14704;SDS011;7442;50.840;3.396;2024-01-15T10:37:08;1.72;;;0.90;;
14704;SDS011;7442;50.840;3.396;2024-01-15T10:39:55;1.10;;;0.57;;
14704;SDS011;7442;50.840;3.396;2024-01-15T10:45:26;1.45;;;0.88;;
14704;SDS011;7442;50.840;3.396;2024-01-15T10:48:12;1.92;;;0.80;;
14704;SDS011;7442;50.840;3.396;2024-01-15T10:50:58;1.32;;;0.70;;
14704;SDS011;7442;50.840;3.396;2024-01-15T10:53:44;0.68;;;0.45;;
14704;SDS011;7442;50.840;3.396;2024-01-15T10:56:35;1.52;;;0.70;;
14704;SDS011;7442;50.840;3.396;2024-01-15T10:59:19;2.08;;;1.12;;
14704;SDS011;7442;50.840;3.396;2024-01-15T11:02:06;1.32;;;0.75;;
14704;SDS011;7442;50.840;3.396;2024-01-15T11:04:53;2.12;;;0.80;;
14704;SDS011;7442;50.840;3.396;2024-01-15T11:07:39;1.87;;;0.90;;
14704;SDS011;7442;50.840;3.396;2024-01-15T11:10:50;1.27;;;0.75;;
14704;SDS011;7442;50.840;3.396;2024-01-15T11:13:20;1.30;;;0.68;;
14704;SDS011;7442;50.840;3.396;2024-01-15T11:16:08;1.60;;;0.90;;
14704;SDS011;7442;50.840;3.396;2024-01-15T11:21:45;1.80;;;0.75;;
14704;SDS011;7442;50.840;3.396;2024-01-15T11:27:17;1.95;;;0.90;;
14704;SDS011;7442;50.840;3.396;2024-01-15T11:30:06;0.85;;;0.78;;
14704;SDS011;7442;50.840;3.396;2024-01-15T11:32:53;1.98;;;0.93;;
14704;SDS011;7442;50.840;3.396;2024-01-15T11:35:48;0.98;;;0.70;;
14704;SDS011;7442;50.840;3.396;2024-01-15T11:38:35;1.70;;;1.00;;
14704;SDS011;7442;50.840;3.396;2024-01-15T11:41:21;1.32;;;0.85;;
14704;SDS011;7442;50.840;3.396;2024-01-15T11:44:10;1.67;;;1.00;;
14704;SDS011;7442;50.840;3.396;2024-01-15T11:47:06;1.95;;;0.80;;
14704;SDS011;7442;50.840;3.396;2024-01-15T11:49:59;1.90;;;0.85;;
14704;SDS011;7442;50.840;3.396;2024-01-15T11:53:00;1.02;;;0.65;;
14704;SDS011;7442;50.840;3.396;2024-01-15T11:55:43;2.05;;;0.82;;
14704;SDS011;7442;50.840;3.396;2024-01-15T11:58:31;2.05;;;0.90;;
14704;SDS011;7442;50.840;3.396;2024-01-15T12:01:19;1.02;;;0.70;;
14704;SDS011;7442;50.840;3.396;2024-01-15T12:04:05;2.75;;;0.75;;
14704;SDS011;7442;50.840;3.396;2024-01-15T12:06:52;1.60;;;0.88;;
14704;SDS011;7442;50.840;3.396;2024-01-15T12:09:42;1.27;;;0.70;;
14704;SDS011;7442;50.840;3.396;2024-01-15T12:15:30;1.25;;;0.65;;
14704;SDS011;7442;50.840;3.396;2024-01-15T12:18:17;1.52;;;0.88;;
14704;SDS011;7442;50.840;3.396;2024-01-15T12:21:04;2.02;;;0.90;;
14704;SDS011;7442;50.840;3.396;2024-01-15T12:23:50;1.82;;;0.80;;
14704;SDS011;7442;50.840;3.396;2024-01-15T12:26:37;1.60;;;0.65;;
14704;SDS011;7442;50.840;3.396;2024-01-15T12:29:23;2.85;;;1.00;;
14704;SDS011;7442;50.840;3.396;2024-01-15T12:32:11;1.40;;;0.80;;
14704;SDS011;7442;50.840;3.396;2024-01-15T12:34:57;2.08;;;0.90;;
14704;SDS011;7442;50.840;3.396;2024-01-15T12:37:43;1.85;;;0.90;;
14704;SDS011;7442;50.840;3.396;2024-01-15T12:40:33;1.55;;;1.05;;
14704;SDS011;7442;50.840;3.396;2024-01-15T12:43:19;1.98;;;1.02;;
14704;SDS011;7442;50.840;3.396;2024-01-15T12:46:05;2.27;;;1.20;;
14704;SDS011;7442;50.840;3.396;2024-01-15T12:48:52;2.30;;;0.93;;
14704;SDS011;7442;50.840;3.396;2024-01-15T12:54:23;1.57;;;0.90;;
14704;SDS011;7442;50.840;3.396;2024-01-15T12:57:10;1.62;;;0.95;;
14704;SDS011;7442;50.840;3.396;2024-01-15T12:59:56;1.75;;;0.62;;
14704;SDS011;7442;50.840;3.396;2024-01-15T13:02:43;1.27;;;0.68;;
14704;SDS011;7442;50.840;3.396;2024-01-15T13:05:29;1.47;;;0.80;;
14704;SDS011;7442;50.840;3.396;2024-01-15T13:08:17;2.45;;;0.90;;
14704;SDS011;7442;50.840;3.396;2024-01-15T13:11:03;1.85;;;0.90;;
14704;SDS011;7442;50.840;3.396;2024-01-15T13:13:50;2.08;;;0.98;;
14704;SDS011;7442;50.840;3.396;2024-01-15T13:16:36;1.42;;;0.75;;
14704;SDS011;7442;50.840;3.396;2024-01-15T13:19:22;3.02;;;1.10;;
14704;SDS011;7442;50.840;3.396;2024-01-15T13:22:08;1.12;;;0.75;;
14704;SDS011;7442;50.840;3.396;2024-01-15T13:24:54;1.40;;;0.72;;
14704;SDS011;7442;50.840;3.396;2024-01-15T13:27:41;2.62;;;1.20;;
14704;SDS011;7442;50.840;3.396;2024-01-15T13:30:27;1.30;;;0.82;;
14704;SDS011;7442;50.840;3.396;2024-01-15T13:33:13;0.70;;;0.57;;
14704;SDS011;7442;50.840;3.396;2024-01-15T13:36:01;1.95;;;0.80;;
14704;SDS011;7442;50.840;3.396;2024-01-15T13:38:48;0.93;;;0.72;;
14704;SDS011;7442;50.840;3.396;2024-01-15T13:41:34;2.62;;;0.80;;
14704;SDS011;7442;50.840;3.396;2024-01-15T13:44:20;1.67;;;1.02;;
14704;SDS011;7442;50.840;3.396;2024-01-15T13:47:06;2.47;;;1.15;;
14704;SDS011;7442;50.840;3.396;2024-01-15T13:49:52;1.57;;;0.70;;
14704;SDS011;7442;50.840;3.396;2024-01-15T13:52:39;1.60;;;0.82;;
14704;SDS011;7442;50.840;3.396;2024-01-15T13:55:26;2.87;;;1.10;;
14704;SDS011;7442;50.840;3.396;2024-01-15T13:58:12;3.12;;;1.17;;
14704;SDS011;7442;50.840;3.396;2024-01-15T14:00:59;1.75;;;1.10;;
14704;SDS011;7442;50.840;3.396;2024-01-15T14:03:45;2.00;;;1.00;;
14704;SDS011;7442;50.840;3.396;2024-01-15T14:06:31;3.20;;;1.00;;
14704;SDS011;7442;50.840;3.396;2024-01-15T14:09:17;3.05;;;1.10;;
14704;SDS011;7442;50.840;3.396;2024-01-15T14:12:03;1.47;;;0.70;;
14704;SDS011;7442;50.840;3.396;2024-01-15T14:14:50;2.30;;;0.88;;
14704;SDS011;7442;50.840;3.396;2024-01-15T14:17:36;1.82;;;1.05;;
14704;SDS011;7442;50.840;3.396;2024-01-15T14:20:22;2.65;;;0.90;;
14704;SDS011;7442;50.840;3.396;2024-01-15T14:23:10;2.72;;;1.02;;
14704;SDS011;7442;50.840;3.396;2024-01-15T14:28:41;1.15;;;0.62;;
14704;SDS011;7442;50.840;3.396;2024-01-15T14:31:27;2.40;;;0.98;;
14704;SDS011;7442;50.840;3.396;2024-01-15T14:34:13;1.90;;;0.90;;
14704;SDS011;7442;50.840;3.396;2024-01-15T14:37:00;1.75;;;0.93;;
14704;SDS011;7442;50.840;3.396;2024-01-15T14:39:46;1.25;;;0.68;;
14704;SDS011;7442;50.840;3.396;2024-01-15T14:42:32;2.20;;;0.90;;
14704;SDS011;7442;50.840;3.396;2024-01-15T14:45:18;1.82;;;1.00;;
14704;SDS011;7442;50.840;3.396;2024-01-15T14:48:05;1.35;;;0.75;;
14704;SDS011;7442;50.840;3.396;2024-01-15T14:50:51;1.77;;;0.88;;
14704;SDS011;7442;50.840;3.396;2024-01-15T14:53:37;3.75;;;0.93;;
14704;SDS011;7442;50.840;3.396;2024-01-15T14:56:24;2.75;;;0.80;;
14704;SDS011;7442;50.840;3.396;2024-01-15T14:59:10;3.85;;;1.02;;
14704;SDS011;7442;50.840;3.396;2024-01-15T15:01:56;2.27;;;0.93;;
14704;SDS011;7442;50.840;3.396;2024-01-15T15:04:42;1.17;;;0.82;;
14704;SDS011;7442;50.840;3.396;2024-01-15T15:07:28;1.32;;;0.90;;
14704;SDS011;7442;50.840;3.396;2024-01-15T15:10:14;3.15;;;0.90;;
14704;SDS011;7442;50.840;3.396;2024-01-15T15:13:01;2.12;;;1.05;;
14704;SDS011;7442;50.840;3.396;2024-01-15T15:15:47;1.77;;;0.98;;
14704;SDS011;7442;50.840;3.396;2024-01-15T15:18:33;1.98;;;0.90;;
14704;SDS011;7442;50.840;3.396;2024-01-15T15:21:20;2.92;;;1.32;;
14704;SDS011;7442;50.840;3.396;2024-01-15T15:24:06;1.62;;;0.90;;
14704;SDS011;7442;50.840;3.396;2024-01-15T15:26:52;2.08;;;1.15;;
14704;SDS011;7442;50.840;3.396;2024-01-15T15:29:38;1.32;;;0.90;;
14704;SDS011;7442;50.840;3.396;2024-01-15T15:32:24;1.85;;;0.90;;
14704;SDS011;7442;50.840;3.396;2024-01-15T15:35:11;3.60;;;0.90;;
14704;SDS011;7442;50.840;3.396;2024-01-15T15:37:57;1.72;;;0.88;;
14704;SDS011;7442;50.840;3.396;2024-01-15T15:40:43;1.42;;;1.00;;
14704;SDS011;7442;50.840;3.396;2024-01-15T15:43:29;2.72;;;0.93;;
14704;SDS011;7442;50.840;3.396;2024-01-15T15:46:16;1.05;;;0.70;;
14704;SDS011;7442;50.840;3.396;2024-01-15T15:49:02;1.10;;;0.82;;
14704;SDS011;7442;50.840;3.396;2024-01-15T15:51:49;2.75;;;1.00;;
14704;SDS011;7442;50.840;3.396;2024-01-15T15:54:36;2.83;;;1.15;;
14704;SDS011;7442;50.840;3.396;2024-01-15T15:57:22;1.62;;;0.93;;
14704;SDS011;7442;50.840;3.396;2024-01-15T16:00:10;3.02;;;1.02;;
14704;SDS011;7442;50.840;3.396;2024-01-15T16:02:57;1.98;;;1.10;;
14704;SDS011;7442;50.840;3.396;2024-01-15T16:05:43;1.20;;;0.80;;
14704;SDS011;7442;50.840;3.396;2024-01-15T16:08:29;3.65;;;1.22;;
14704;SDS011;7442;50.840;3.396;2024-01-15T16:11:15;2.90;;;0.93;;
14704;SDS011;7442;50.840;3.396;2024-01-15T16:16:46;1.62;;;0.80;;
14704;SDS011;7442;50.840;3.396;2024-01-15T16:22:17;2.65;;;1.07;;
14704;SDS011;7442;50.840;3.396;2024-01-15T16:25:05;1.45;;;0.78;;
14704;SDS011;7442;50.840;3.396;2024-01-15T16:27:50;1.87;;;0.90;;
14704;SDS011;7442;50.840;3.396;2024-01-15T16:33:22;2.62;;;0.90;;
14704;SDS011;7442;50.840;3.396;2024-01-15T16:36:08;2.77;;;0.82;;
14704;SDS011;7442;50.840;3.396;2024-01-15T16:38:54;1.30;;;0.82;;
14704;SDS011;7442;50.840;3.396;2024-01-15T16:41:40;3.05;;;0.70;;
14704;SDS011;7442;50.840;3.396;2024-01-15T16:44:26;4.35;;;1.50;;
14704;SDS011;7442;50.840;3.396;2024-01-15T16:47:12;1.52;;;0.90;;
14704;SDS011;7442;50.840;3.396;2024-01-15T16:49:58;2.33;;;1.22;;
14704;SDS011;7442;50.840;3.396;2024-01-15T16:52:45;3.67;;;1.37;;
14704;SDS011;7442;50.840;3.396;2024-01-15T16:55:31;1.57;;;0.90;;
14704;SDS011;7442;50.840;3.396;2024-01-15T16:58:16;1.72;;;0.72;;
14704;SDS011;7442;50.840;3.396;2024-01-15T17:01:09;1.87;;;1.00;;
14704;SDS011;7442;50.840;3.396;2024-01-15T17:03:55;1.87;;;0.98;;
14704;SDS011;7442;50.840;3.396;2024-01-15T17:06:42;2.47;;;1.02;;
14704;SDS011;7442;50.840;3.396;2024-01-15T17:12:13;1.05;;;0.80;;
14704;SDS011;7442;50.840;3.396;2024-01-15T17:15:01;2.33;;;1.02;;
14704;SDS011;7442;50.840;3.396;2024-01-15T17:17:47;2.50;;;1.17;;
14704;SDS011;7442;50.840;3.396;2024-01-15T17:20:33;1.55;;;1.00;;
14704;SDS011;7442;50.840;3.396;2024-01-15T17:23:19;2.58;;;0.90;;
14704;SDS011;7442;50.840;3.396;2024-01-15T17:26:05;3.15;;;1.10;;
14704;SDS011;7442;50.840;3.396;2024-01-15T17:31:36;0.82;;;0.68;;
14704;SDS011;7442;50.840;3.396;2024-01-15T17:34:22;1.37;;;0.80;;
14704;SDS011;7442;50.840;3.396;2024-01-15T17:37:08;3.05;;;1.12;;
14704;SDS011;7442;50.840;3.396;2024-01-15T17:42:39;2.42;;;1.22;;
14704;SDS011;7442;50.840;3.396;2024-01-15T17:48:11;1.45;;;1.02;;
14704;SDS011;7442;50.840;3.396;2024-01-15T17:53:49;1.27;;;1.00;;
14704;SDS011;7442;50.840;3.396;2024-01-15T17:56:34;2.10;;;1.05;;
14704;SDS011;7442;50.840;3.396;2024-01-15T17:59:20;1.10;;;0.82;;
14704;SDS011;7442;50.840;3.396;2024-01-15T18:02:06;1.67;;;0.90;;
14704;SDS011;7442;50.840;3.396;2024-01-15T18:07:37;2.33;;;1.12;;
14704;SDS011;7442;50.840;3.396;2024-01-15T18:10:24;2.62;;;0.95;;
14704;SDS011;7442;50.840;3.396;2024-01-15T18:13:11;2.80;;;1.20;;
14704;SDS011;7442;50.840;3.396;2024-01-15T18:18:43;1.52;;;1.10;;
14704;SDS011;7442;50.840;3.396;2024-01-15T18:21:30;2.05;;;1.10;;
14704;SDS011;7442;50.840;3.396;2024-01-15T18:24:16;1.67;;;1.20;;
14704;SDS011;7442;50.840;3.396;2024-01-15T18:27:02;1.45;;;1.00;;
14704;SDS011;7442;50.840;3.396;2024-01-15T18:29:49;1.72;;;1.07;;
14704;SDS011;7442;50.840;3.396;2024-01-15T18:32:35;1.72;;;1.10;;
14704;SDS011;7442;50.840;3.396;2024-01-15T18:35:21;2.15;;;1.22;;
14704;SDS011;7442;50.840;3.396;2024-01-15T18:38:08;3.60;;;0.98;;
14704;SDS011;7442;50.840;3.396;2024-01-15T18:40:55;1.47;;;1.07;;
14704;SDS011;7442;50.840;3.396;2024-01-15T18:46:26;2.10;;;0.90;;
14704;SDS011;7442;50.840;3.396;2024-01-15T18:49:12;2.85;;;1.27;;
14704;SDS011;7442;50.840;3.396;2024-01-15T18:51:59;1.80;;;1.17;;
14704;SDS011;7442;50.840;3.396;2024-01-15T18:54:45;2.52;;;1.32;;
14704;SDS011;7442;50.840;3.396;2024-01-15T18:57:31;1.75;;;1.15;;
14704;SDS011;7442;50.840;3.396;2024-01-15T19:00:17;1.50;;;1.40;;
14704;SDS011;7442;50.840;3.396;2024-01-15T19:03:05;1.90;;;1.05;;
14704;SDS011;7442;50.840;3.396;2024-01-15T19:08:36;1.47;;;1.10;;
14704;SDS011;7442;50.840;3.396;2024-01-15T19:11:22;2.67;;;1.35;;
14704;SDS011;7442;50.840;3.396;2024-01-15T19:14:08;1.67;;;1.15;;
14704;SDS011;7442;50.840;3.396;2024-01-15T19:19:40;2.08;;;1.30;;
14704;SDS011;7442;50.840;3.396;2024-01-15T19:22:26;2.42;;;1.10;;
14704;SDS011;7442;50.840;3.396;2024-01-15T19:25:12;2.20;;;1.50;;
14704;SDS011;7442;50.840;3.396;2024-01-15T19:30:43;1.85;;;1.27;;
14704;SDS011;7442;50.840;3.396;2024-01-15T19:36:19;2.37;;;1.17;;
14704;SDS011;7442;50.840;3.396;2024-01-15T19:39:06;1.72;;;1.00;;
14704;SDS011;7442;50.840;3.396;2024-01-15T19:41:54;1.82;;;1.30;;
14704;SDS011;7442;50.840;3.396;2024-01-15T19:44:40;2.60;;;1.30;;
14704;SDS011;7442;50.840;3.396;2024-01-15T19:50:12;2.05;;;1.30;;